<?xml version="1.0" encoding="UTF-8" standalone="no" ?>
<gpx xmlns="http://www.topografix.com/GPX/1/1" xmlns:xsi="http://www.w3.org/2001/XMLSchema-instance" xsi:schemaLocation="http://www.topografix.com/GPX/1/1 http://www.topografix.com/GPX/1/1/gpx.xsd" version="1.1" creator="VisuGPX - https://www.visugpx.com">
  <metadata>
    <name>Randonée pedestre Codognan-Vergèze</name>
  </metadata>
  <trk>
    <name><![CDATA[Codognan - Vergèze-23467012]]></name>
    <trkseg>
      <trkpt lat="43.73727" lon="4.21729">
        <ele>20</ele>
        <time>2026-03-02T08:53:51Z</time>
      </trkpt>
      <trkpt lat="43.73737" lon="4.21773">
        <ele>20</ele>
        <time>2026-03-02T08:54:35Z</time>
      </trkpt>
      <trkpt lat="43.73757" lon="4.21789">
        <ele>20</ele>
        <time>2026-03-02T08:55:06Z</time>
      </trkpt>
      <trkpt lat="43.738" lon="4.21763">
        <ele>22</ele>
        <time>2026-03-02T08:56:09Z</time>
      </trkpt>
      <trkpt lat="43.73834" lon="4.21754">
        <ele>23</ele>
        <time>2026-03-02T08:56:55Z</time>
      </trkpt>
      <trkpt lat="43.73797" lon="4.21611">
        <ele>22</ele>
        <time>2026-03-02T08:59:22Z</time>
      </trkpt>
      <trkpt lat="43.73792" lon="4.21563">
        <ele>21</ele>
        <time>2026-03-02T09:00:08Z</time>
      </trkpt>
      <trkpt lat="43.73783" lon="4.21529">
        <ele>20</ele>
        <time>2026-03-02T09:00:43Z</time>
      </trkpt>
      <trkpt lat="43.7376" lon="4.21455">
        <ele>19</ele>
        <time>2026-03-02T09:02:01Z</time>
      </trkpt>
      <trkpt lat="43.73745" lon="4.21439">
        <ele>19</ele>
        <time>2026-03-02T09:02:26Z</time>
      </trkpt>
      <trkpt lat="43.73731" lon="4.21438">
        <ele>19</ele>
        <time>2026-03-02T09:02:45Z</time>
      </trkpt>
      <trkpt lat="43.73709" lon="4.21445">
        <ele>18</ele>
        <time>2026-03-02T09:03:15Z</time>
      </trkpt>
      <trkpt lat="43.73671" lon="4.21481">
        <ele>17</ele>
        <time>2026-03-02T09:04:16Z</time>
      </trkpt>
      <trkpt lat="43.73666" lon="4.21493">
        <ele>17</ele>
        <time>2026-03-02T09:04:30Z</time>
      </trkpt>
      <trkpt lat="43.73618" lon="4.21538">
        <ele>17</ele>
        <time>2026-03-02T09:05:47Z</time>
      </trkpt>
      <trkpt lat="43.73615" lon="4.21544">
        <ele>17</ele>
        <time>2026-03-02T09:05:54Z</time>
      </trkpt>
      <trkpt lat="43.73591" lon="4.21552">
        <ele>17</ele>
        <time>2026-03-02T09:06:27Z</time>
      </trkpt>
      <trkpt lat="43.73585" lon="4.21556">
        <ele>17</ele>
        <time>2026-03-02T09:06:36Z</time>
      </trkpt>
      <trkpt lat="43.73585" lon="4.21561">
        <ele>17</ele>
        <time>2026-03-02T09:06:41Z</time>
      </trkpt>
      <trkpt lat="43.73582" lon="4.21556">
        <ele>17</ele>
        <time>2026-03-02T09:06:47Z</time>
      </trkpt>
      <trkpt lat="43.73567" lon="4.21561">
        <ele>18</ele>
        <time>2026-03-02T09:07:08Z</time>
      </trkpt>
      <trkpt lat="43.73546" lon="4.21575">
        <ele>18</ele>
        <time>2026-03-02T09:07:39Z</time>
      </trkpt>
      <trkpt lat="43.73486" lon="4.21608">
        <ele>18</ele>
        <time>2026-03-02T09:09:05Z</time>
      </trkpt>
      <trkpt lat="43.73457" lon="4.21615">
        <ele>18</ele>
        <time>2026-03-02T09:09:44Z</time>
      </trkpt>
      <trkpt lat="43.73451" lon="4.21619">
        <ele>18</ele>
        <time>2026-03-02T09:09:53Z</time>
      </trkpt>
      <trkpt lat="43.73406" lon="4.21635">
        <ele>18</ele>
        <time>2026-03-02T09:10:55Z</time>
      </trkpt>
      <trkpt lat="43.73402" lon="4.21629">
        <ele>18</ele>
        <time>2026-03-02T09:11:03Z</time>
      </trkpt>
      <trkpt lat="43.73405" lon="4.2161">
        <ele>18</ele>
        <time>2026-03-02T09:11:22Z</time>
      </trkpt>
      <trkpt lat="43.73401" lon="4.21585">
        <ele>17</ele>
        <time>2026-03-02T09:11:46Z</time>
      </trkpt>
      <trkpt lat="43.73404" lon="4.21534">
        <ele>17</ele>
        <time>2026-03-02T09:12:36Z</time>
      </trkpt>
      <trkpt lat="43.73394" lon="4.21515">
        <ele>17</ele>
        <time>2026-03-02T09:12:58Z</time>
      </trkpt>
      <trkpt lat="43.73363" lon="4.21513">
        <ele>17</ele>
        <time>2026-03-02T09:13:40Z</time>
      </trkpt>
      <trkpt lat="43.7332" lon="4.21494">
        <ele>18</ele>
        <time>2026-03-02T09:14:40Z</time>
      </trkpt>
      <trkpt lat="43.73297" lon="4.21474">
        <ele>18</ele>
        <time>2026-03-02T09:15:16Z</time>
      </trkpt>
      <trkpt lat="43.73275" lon="4.21446">
        <ele>17</ele>
        <time>2026-03-02T09:15:56Z</time>
      </trkpt>
      <trkpt lat="43.73256" lon="4.21428">
        <ele>17</ele>
        <time>2026-03-02T09:16:27Z</time>
      </trkpt>
      <trkpt lat="43.73199" lon="4.21392">
        <ele>17</ele>
        <time>2026-03-02T09:17:51Z</time>
      </trkpt>
      <trkpt lat="43.73193" lon="4.21383">
        <ele>18</ele>
        <time>2026-03-02T09:18:02Z</time>
      </trkpt>
      <trkpt lat="43.73163" lon="4.21352">
        <ele>18</ele>
        <time>2026-03-02T09:18:52Z</time>
      </trkpt>
      <trkpt lat="43.73143" lon="4.21324">
        <ele>19</ele>
        <time>2026-03-02T09:19:30Z</time>
      </trkpt>
      <trkpt lat="43.73136" lon="4.21309">
        <ele>19</ele>
        <time>2026-03-02T09:19:48Z</time>
      </trkpt>
      <trkpt lat="43.73122" lon="4.2129">
        <ele>20</ele>
        <time>2026-03-02T09:20:14Z</time>
      </trkpt>
      <trkpt lat="43.73086" lon="4.21227">
        <ele>20</ele>
        <time>2026-03-02T09:21:31Z</time>
      </trkpt>
      <trkpt lat="43.73066" lon="4.21184">
        <ele>19</ele>
        <time>2026-03-02T09:22:20Z</time>
      </trkpt>
      <trkpt lat="43.73054" lon="4.21139">
        <ele>18</ele>
        <time>2026-03-02T09:23:07Z</time>
      </trkpt>
      <trkpt lat="43.73044" lon="4.21071">
        <ele>18</ele>
        <time>2026-03-02T09:24:14Z</time>
      </trkpt>
      <trkpt lat="43.73029" lon="4.21021">
        <ele>17</ele>
        <time>2026-03-02T09:25:06Z</time>
      </trkpt>
      <trkpt lat="43.72993" lon="4.20951">
        <ele>17</ele>
        <time>2026-03-02T09:26:29Z</time>
      </trkpt>
      <trkpt lat="43.72946" lon="4.20884">
        <ele>17</ele>
        <time>2026-03-02T09:27:59Z</time>
      </trkpt>
      <trkpt lat="43.7293" lon="4.20857">
        <ele>17</ele>
        <time>2026-03-02T09:28:32Z</time>
      </trkpt>
      <trkpt lat="43.72916" lon="4.20814">
        <ele>17</ele>
        <time>2026-03-02T09:29:18Z</time>
      </trkpt>
      <trkpt lat="43.72916" lon="4.20784">
        <ele>17</ele>
        <time>2026-03-02T09:29:47Z</time>
      </trkpt>
      <trkpt lat="43.72909" lon="4.20723">
        <ele>17</ele>
        <time>2026-03-02T09:30:46Z</time>
      </trkpt>
      <trkpt lat="43.7291" lon="4.20695">
        <ele>17</ele>
        <time>2026-03-02T09:31:13Z</time>
      </trkpt>
      <trkpt lat="43.72913" lon="4.20679">
        <ele>17</ele>
        <time>2026-03-02T09:31:29Z</time>
      </trkpt>
      <trkpt lat="43.72941" lon="4.20628">
        <ele>17</ele>
        <time>2026-03-02T09:32:31Z</time>
      </trkpt>
      <trkpt lat="43.7295" lon="4.20606">
        <ele>17</ele>
        <time>2026-03-02T09:32:55Z</time>
      </trkpt>
      <trkpt lat="43.72937" lon="4.20573">
        <ele>17</ele>
        <time>2026-03-02T09:33:32Z</time>
      </trkpt>
      <trkpt lat="43.72927" lon="4.20513">
        <ele>19</ele>
        <time>2026-03-02T09:34:31Z</time>
      </trkpt>
      <trkpt lat="43.72908" lon="4.20451">
        <ele>19</ele>
        <time>2026-03-02T09:35:36Z</time>
      </trkpt>
      <trkpt lat="43.72889" lon="4.20399">
        <ele>19</ele>
        <time>2026-03-02T09:36:32Z</time>
      </trkpt>
      <trkpt lat="43.72857" lon="4.20265">
        <ele>18</ele>
        <time>2026-03-02T09:38:48Z</time>
      </trkpt>
      <trkpt lat="43.72848" lon="4.20233">
        <ele>18</ele>
        <time>2026-03-02T09:39:21Z</time>
      </trkpt>
      <trkpt lat="43.72842" lon="4.2022">
        <ele>18</ele>
        <time>2026-03-02T09:39:36Z</time>
      </trkpt>
      <trkpt lat="43.72832" lon="4.20173">
        <ele>18</ele>
        <time>2026-03-02T09:40:24Z</time>
      </trkpt>
      <trkpt lat="43.72823" lon="4.20127">
        <ele>17</ele>
        <time>2026-03-02T09:41:10Z</time>
      </trkpt>
      <trkpt lat="43.72808" lon="4.20024">
        <ele>17</ele>
        <time>2026-03-02T09:42:51Z</time>
      </trkpt>
      <trkpt lat="43.72807" lon="4.19961">
        <ele>17</ele>
        <time>2026-03-02T09:43:52Z</time>
      </trkpt>
      <trkpt lat="43.72803" lon="4.19948">
        <ele>16</ele>
        <time>2026-03-02T09:44:05Z</time>
      </trkpt>
      <trkpt lat="43.72804" lon="4.19926">
        <ele>16</ele>
        <time>2026-03-02T09:44:27Z</time>
      </trkpt>
      <trkpt lat="43.72801" lon="4.19902">
        <ele>16</ele>
        <time>2026-03-02T09:44:50Z</time>
      </trkpt>
      <trkpt lat="43.72758" lon="4.1976">
        <ele>17</ele>
        <time>2026-03-02T09:47:18Z</time>
      </trkpt>
      <trkpt lat="43.72747" lon="4.1971">
        <ele>18</ele>
        <time>2026-03-02T09:48:09Z</time>
      </trkpt>
      <trkpt lat="43.727" lon="4.19551">
        <ele>21</ele>
        <time>2026-03-02T09:50:55Z</time>
      </trkpt>
      <trkpt lat="43.72687" lon="4.19492">
        <ele>21</ele>
        <time>2026-03-02T09:51:54Z</time>
      </trkpt>
      <trkpt lat="43.72673" lon="4.19454">
        <ele>21</ele>
        <time>2026-03-02T09:52:35Z</time>
      </trkpt>
      <trkpt lat="43.72654" lon="4.19378">
        <ele>21</ele>
        <time>2026-03-02T09:53:53Z</time>
      </trkpt>
      <trkpt lat="43.72649" lon="4.19366">
        <ele>21</ele>
        <time>2026-03-02T09:54:06Z</time>
      </trkpt>
      <trkpt lat="43.72642" lon="4.19317">
        <ele>20</ele>
        <time>2026-03-02T09:54:54Z</time>
      </trkpt>
      <trkpt lat="43.72612" lon="4.19244">
        <ele>19</ele>
        <time>2026-03-02T09:56:15Z</time>
      </trkpt>
      <trkpt lat="43.72579" lon="4.19182">
        <ele>17</ele>
        <time>2026-03-02T09:57:29Z</time>
      </trkpt>
      <trkpt lat="43.72547" lon="4.19112">
        <ele>18</ele>
        <time>2026-03-02T09:58:49Z</time>
      </trkpt>
      <trkpt lat="43.72531" lon="4.19118">
        <ele>18</ele>
        <time>2026-03-02T09:59:11Z</time>
      </trkpt>
      <trkpt lat="43.72503" lon="4.19135">
        <ele>17</ele>
        <time>2026-03-02T09:59:52Z</time>
      </trkpt>
      <trkpt lat="43.72487" lon="4.19142">
        <ele>17</ele>
        <time>2026-03-02T10:00:15Z</time>
      </trkpt>
      <trkpt lat="43.72426" lon="4.19179">
        <ele>18</ele>
        <time>2026-03-02T10:01:44Z</time>
      </trkpt>
      <trkpt lat="43.72403" lon="4.19182">
        <ele>18</ele>
        <time>2026-03-02T10:02:14Z</time>
      </trkpt>
      <trkpt lat="43.72379" lon="4.19202">
        <ele>18</ele>
        <time>2026-03-02T10:02:52Z</time>
      </trkpt>
      <trkpt lat="43.72362" lon="4.19211">
        <ele>18</ele>
        <time>2026-03-02T10:03:16Z</time>
      </trkpt>
      <trkpt lat="43.72304" lon="4.19237">
        <ele>18</ele>
        <time>2026-03-02T10:04:37Z</time>
      </trkpt>
      <trkpt lat="43.7225" lon="4.19257">
        <ele>17</ele>
        <time>2026-03-02T10:05:52Z</time>
      </trkpt>
      <trkpt lat="43.72235" lon="4.19267">
        <ele>17</ele>
        <time>2026-03-02T10:06:14Z</time>
      </trkpt>
      <trkpt lat="43.72225" lon="4.1927">
        <ele>17</ele>
        <time>2026-03-02T10:06:28Z</time>
      </trkpt>
      <trkpt lat="43.72223" lon="4.19267">
        <ele>17</ele>
        <time>2026-03-02T10:06:32Z</time>
      </trkpt>
      <trkpt lat="43.72231" lon="4.19212">
        <ele>17</ele>
        <time>2026-03-02T10:07:26Z</time>
      </trkpt>
      <trkpt lat="43.72216" lon="4.18993">
        <ele>19</ele>
        <time>2026-03-02T10:10:58Z</time>
      </trkpt>
      <trkpt lat="43.72205" lon="4.18782">
        <ele>17</ele>
        <time>2026-03-02T10:14:22Z</time>
      </trkpt>
      <trkpt lat="43.7221" lon="4.18782">
        <ele>18</ele>
        <time>2026-03-02T10:14:29Z</time>
      </trkpt>
      <trkpt lat="43.72227" lon="4.18759">
        <ele>18</ele>
        <time>2026-03-02T10:15:00Z</time>
      </trkpt>
      <trkpt lat="43.72219" lon="4.1873">
        <ele>18</ele>
        <time>2026-03-02T10:15:30Z</time>
      </trkpt>
      <trkpt lat="43.72201" lon="4.1872">
        <ele>17</ele>
        <time>2026-03-02T10:15:56Z</time>
      </trkpt>
      <trkpt lat="43.72196" lon="4.1862">
        <ele>17</ele>
        <time>2026-03-02T10:17:33Z</time>
      </trkpt>
      <trkpt lat="43.72185" lon="4.18545">
        <ele>17</ele>
        <time>2026-03-02T10:18:47Z</time>
      </trkpt>
      <trkpt lat="43.72154" lon="4.18405">
        <ele>19</ele>
        <time>2026-03-02T10:21:08Z</time>
      </trkpt>
      <trkpt lat="43.72136" lon="4.18347">
        <ele>19</ele>
        <time>2026-03-02T10:22:09Z</time>
      </trkpt>
      <trkpt lat="43.72111" lon="4.18197">
        <ele>22</ele>
        <time>2026-03-02T10:24:37Z</time>
      </trkpt>
      <trkpt lat="43.71971" lon="4.17898">
        <ele>23</ele>
        <time>2026-03-02T10:30:21Z</time>
      </trkpt>
      <trkpt lat="43.71941" lon="4.1784">
        <ele>23</ele>
        <time>2026-03-02T10:31:30Z</time>
      </trkpt>
      <trkpt lat="43.719" lon="4.17785">
        <ele>23</ele>
        <time>2026-03-02T10:32:46Z</time>
      </trkpt>
      <trkpt lat="43.71909" lon="4.17781">
        <ele>23</ele>
        <time>2026-03-02T10:32:59Z</time>
      </trkpt>
      <trkpt lat="43.71917" lon="4.17768">
        <ele>24</ele>
        <time>2026-03-02T10:33:15Z</time>
      </trkpt>
      <trkpt lat="43.71929" lon="4.17759">
        <ele>24</ele>
        <time>2026-03-02T10:33:33Z</time>
      </trkpt>
      <trkpt lat="43.71951" lon="4.17747">
        <ele>26</ele>
        <time>2026-03-02T10:34:05Z</time>
      </trkpt>
      <trkpt lat="43.71937" lon="4.17706">
        <ele>26</ele>
        <time>2026-03-02T10:34:49Z</time>
      </trkpt>
      <trkpt lat="43.71928" lon="4.17659">
        <ele>26</ele>
        <time>2026-03-02T10:35:35Z</time>
      </trkpt>
      <trkpt lat="43.7205" lon="4.1756">
        <ele>35</ele>
        <time>2026-03-02T10:38:44Z</time>
      </trkpt>
      <trkpt lat="43.72146" lon="4.1749">
        <ele>45</ele>
        <time>2026-03-02T10:41:09Z</time>
      </trkpt>
      <trkpt lat="43.72151" lon="4.17479">
        <ele>46</ele>
        <time>2026-03-02T10:41:21Z</time>
      </trkpt>
      <trkpt lat="43.72159" lon="4.17472">
        <ele>47</ele>
        <time>2026-03-02T10:41:34Z</time>
      </trkpt>
      <trkpt lat="43.72164" lon="4.17463">
        <ele>48</ele>
        <time>2026-03-02T10:41:45Z</time>
      </trkpt>
      <trkpt lat="43.72167" lon="4.17427">
        <ele>50</ele>
        <time>2026-03-02T10:42:20Z</time>
      </trkpt>
      <trkpt lat="43.72172" lon="4.17409">
        <ele>50</ele>
        <time>2026-03-02T10:42:39Z</time>
      </trkpt>
      <trkpt lat="43.72187" lon="4.17394">
        <ele>52</ele>
        <time>2026-03-02T10:43:03Z</time>
      </trkpt>
      <trkpt lat="43.72193" lon="4.17383">
        <ele>53</ele>
        <time>2026-03-02T10:43:17Z</time>
      </trkpt>
      <trkpt lat="43.722" lon="4.17378">
        <ele>53</ele>
        <time>2026-03-02T10:43:27Z</time>
      </trkpt>
      <trkpt lat="43.72208" lon="4.17354">
        <ele>55</ele>
        <time>2026-03-02T10:43:53Z</time>
      </trkpt>
      <trkpt lat="43.72205" lon="4.17304">
        <ele>54</ele>
        <time>2026-03-02T10:44:41Z</time>
      </trkpt>
      <trkpt lat="43.72209" lon="4.17297">
        <ele>54</ele>
        <time>2026-03-02T10:44:50Z</time>
      </trkpt>
      <trkpt lat="43.72235" lon="4.17294">
        <ele>57</ele>
        <time>2026-03-02T10:45:24Z</time>
      </trkpt>
      <trkpt lat="43.72246" lon="4.17303">
        <ele>59</ele>
        <time>2026-03-02T10:45:41Z</time>
      </trkpt>
      <trkpt lat="43.72265" lon="4.17251">
        <ele>58</ele>
        <time>2026-03-02T10:46:38Z</time>
      </trkpt>
      <trkpt lat="43.72275" lon="4.17233">
        <ele>57</ele>
        <time>2026-03-02T10:47:00Z</time>
      </trkpt>
      <trkpt lat="43.72301" lon="4.17214">
        <ele>57</ele>
        <time>2026-03-02T10:47:39Z</time>
      </trkpt>
      <trkpt lat="43.72333" lon="4.17211">
        <ele>58</ele>
        <time>2026-03-02T10:48:22Z</time>
      </trkpt>
      <trkpt lat="43.7236" lon="4.17217">
        <ele>57</ele>
        <time>2026-03-02T10:48:58Z</time>
      </trkpt>
      <trkpt lat="43.7238" lon="4.17216">
        <ele>56</ele>
        <time>2026-03-02T10:49:25Z</time>
      </trkpt>
      <trkpt lat="43.72407" lon="4.17207">
        <ele>54</ele>
        <time>2026-03-02T10:50:02Z</time>
      </trkpt>
      <trkpt lat="43.72436" lon="4.17193">
        <ele>52</ele>
        <time>2026-03-02T10:50:43Z</time>
      </trkpt>
      <trkpt lat="43.72448" lon="4.17184">
        <ele>51</ele>
        <time>2026-03-02T10:51:01Z</time>
      </trkpt>
      <trkpt lat="43.72522" lon="4.17169">
        <ele>49</ele>
        <time>2026-03-02T10:52:41Z</time>
      </trkpt>
      <trkpt lat="43.72527" lon="4.17171">
        <ele>49</ele>
        <time>2026-03-02T10:52:48Z</time>
      </trkpt>
      <trkpt lat="43.72534" lon="4.17227">
        <ele>50</ele>
        <time>2026-03-02T10:53:43Z</time>
      </trkpt>
      <trkpt lat="43.72544" lon="4.17254">
        <ele>51</ele>
        <time>2026-03-02T10:54:12Z</time>
      </trkpt>
      <trkpt lat="43.72566" lon="4.1735">
        <ele>53</ele>
        <time>2026-03-02T10:55:49Z</time>
      </trkpt>
      <trkpt lat="43.72586" lon="4.17515">
        <ele>47</ele>
        <time>2026-03-02T10:58:30Z</time>
      </trkpt>
      <trkpt lat="43.72597" lon="4.1758">
        <ele>44</ele>
        <time>2026-03-02T10:59:35Z</time>
      </trkpt>
      <trkpt lat="43.72609" lon="4.17614">
        <ele>44</ele>
        <time>2026-03-02T11:00:11Z</time>
      </trkpt>
      <trkpt lat="43.7267" lon="4.17598">
        <ele>46</ele>
        <time>2026-03-02T11:01:34Z</time>
      </trkpt>
      <trkpt lat="43.72732" lon="4.17593">
        <ele>44</ele>
        <time>2026-03-02T11:02:57Z</time>
      </trkpt>
      <trkpt lat="43.72742" lon="4.17598">
        <ele>44</ele>
        <time>2026-03-02T11:03:11Z</time>
      </trkpt>
      <trkpt lat="43.72764" lon="4.17599">
        <ele>43</ele>
        <time>2026-03-02T11:03:41Z</time>
      </trkpt>
      <trkpt lat="43.72773" lon="4.17604">
        <ele>42</ele>
        <time>2026-03-02T11:03:53Z</time>
      </trkpt>
      <trkpt lat="43.72805" lon="4.17604">
        <ele>41</ele>
        <time>2026-03-02T11:04:36Z</time>
      </trkpt>
      <trkpt lat="43.72864" lon="4.17631">
        <ele>37</ele>
        <time>2026-03-02T11:05:59Z</time>
      </trkpt>
      <trkpt lat="43.72893" lon="4.17633">
        <ele>36</ele>
        <time>2026-03-02T11:06:38Z</time>
      </trkpt>
      <trkpt lat="43.72903" lon="4.1763">
        <ele>36</ele>
        <time>2026-03-02T11:06:51Z</time>
      </trkpt>
      <trkpt lat="43.72911" lon="4.17634">
        <ele>35</ele>
        <time>2026-03-02T11:07:03Z</time>
      </trkpt>
      <trkpt lat="43.72929" lon="4.17633">
        <ele>36</ele>
        <time>2026-03-02T11:07:27Z</time>
      </trkpt>
      <trkpt lat="43.72949" lon="4.17606">
        <ele>37</ele>
        <time>2026-03-02T11:08:04Z</time>
      </trkpt>
      <trkpt lat="43.72975" lon="4.17618">
        <ele>37</ele>
        <time>2026-03-02T11:08:41Z</time>
      </trkpt>
      <trkpt lat="43.72985" lon="4.17628">
        <ele>37</ele>
        <time>2026-03-02T11:08:57Z</time>
      </trkpt>
      <trkpt lat="43.72996" lon="4.17632">
        <ele>37</ele>
        <time>2026-03-02T11:09:12Z</time>
      </trkpt>
      <trkpt lat="43.7301" lon="4.17641">
        <ele>38</ele>
        <time>2026-03-02T11:09:33Z</time>
      </trkpt>
      <trkpt lat="43.73026" lon="4.17644">
        <ele>39</ele>
        <time>2026-03-02T11:09:55Z</time>
      </trkpt>
      <trkpt lat="43.73045" lon="4.17654">
        <ele>40</ele>
        <time>2026-03-02T11:10:22Z</time>
      </trkpt>
      <trkpt lat="43.73074" lon="4.17677">
        <ele>42</ele>
        <time>2026-03-02T11:11:06Z</time>
      </trkpt>
      <trkpt lat="43.73085" lon="4.17693">
        <ele>43</ele>
        <time>2026-03-02T11:11:28Z</time>
      </trkpt>
      <trkpt lat="43.73098" lon="4.17699">
        <ele>44</ele>
        <time>2026-03-02T11:11:46Z</time>
      </trkpt>
      <trkpt lat="43.73126" lon="4.17724">
        <ele>47</ele>
        <time>2026-03-02T11:12:30Z</time>
      </trkpt>
      <trkpt lat="43.73161" lon="4.17746">
        <ele>50</ele>
        <time>2026-03-02T11:13:22Z</time>
      </trkpt>
      <trkpt lat="43.7319" lon="4.17754">
        <ele>51</ele>
        <time>2026-03-02T11:14:01Z</time>
      </trkpt>
      <trkpt lat="43.73205" lon="4.17763">
        <ele>51</ele>
        <time>2026-03-02T11:14:23Z</time>
      </trkpt>
      <trkpt lat="43.73234" lon="4.17769">
        <ele>52</ele>
        <time>2026-03-02T11:15:02Z</time>
      </trkpt>
      <trkpt lat="43.73302" lon="4.17753">
        <ele>55</ele>
        <time>2026-03-02T11:16:34Z</time>
      </trkpt>
      <trkpt lat="43.73313" lon="4.17743">
        <ele>55</ele>
        <time>2026-03-02T11:16:52Z</time>
      </trkpt>
      <trkpt lat="43.73326" lon="4.17737">
        <ele>56</ele>
        <time>2026-03-02T11:17:10Z</time>
      </trkpt>
      <trkpt lat="43.73358" lon="4.17736">
        <ele>57</ele>
        <time>2026-03-02T11:17:53Z</time>
      </trkpt>
      <trkpt lat="43.7341" lon="4.17758">
        <ele>60</ele>
        <time>2026-03-02T11:19:05Z</time>
      </trkpt>
      <trkpt lat="43.73451" lon="4.17768">
        <ele>63</ele>
        <time>2026-03-02T11:20:01Z</time>
      </trkpt>
      <trkpt lat="43.73494" lon="4.17772">
        <ele>66</ele>
        <time>2026-03-02T11:20:58Z</time>
      </trkpt>
      <trkpt lat="43.73523" lon="4.17783">
        <ele>65</ele>
        <time>2026-03-02T11:21:38Z</time>
      </trkpt>
      <trkpt lat="43.73536" lon="4.17784">
        <ele>64</ele>
        <time>2026-03-02T11:21:56Z</time>
      </trkpt>
      <trkpt lat="43.73553" lon="4.1779">
        <ele>63</ele>
        <time>2026-03-02T11:22:19Z</time>
      </trkpt>
      <trkpt lat="43.73577" lon="4.17807">
        <ele>62</ele>
        <time>2026-03-02T11:22:55Z</time>
      </trkpt>
      <trkpt lat="43.73652" lon="4.17893">
        <ele>55</ele>
        <time>2026-03-02T11:25:05Z</time>
      </trkpt>
      <trkpt lat="43.73668" lon="4.17902">
        <ele>53</ele>
        <time>2026-03-02T11:25:28Z</time>
      </trkpt>
      <trkpt lat="43.7373" lon="4.17906">
        <ele>50</ele>
        <time>2026-03-02T11:26:51Z</time>
      </trkpt>
      <trkpt lat="43.73742" lon="4.17902">
        <ele>50</ele>
        <time>2026-03-02T11:27:07Z</time>
      </trkpt>
      <trkpt lat="43.73761" lon="4.17901">
        <ele>50</ele>
        <time>2026-03-02T11:27:33Z</time>
      </trkpt>
      <trkpt lat="43.73778" lon="4.17913">
        <ele>50</ele>
        <time>2026-03-02T11:27:58Z</time>
      </trkpt>
      <trkpt lat="43.73798" lon="4.17915">
        <ele>50</ele>
        <time>2026-03-02T11:28:25Z</time>
      </trkpt>
      <trkpt lat="43.73833" lon="4.17923">
        <ele>51</ele>
        <time>2026-03-02T11:29:12Z</time>
      </trkpt>
      <trkpt lat="43.73923" lon="4.17916">
        <ele>52</ele>
        <time>2026-03-02T11:31:13Z</time>
      </trkpt>
      <trkpt lat="43.73942" lon="4.17913">
        <ele>51</ele>
        <time>2026-03-02T11:31:38Z</time>
      </trkpt>
      <trkpt lat="43.73952" lon="4.17906">
        <ele>51</ele>
        <time>2026-03-02T11:31:53Z</time>
      </trkpt>
      <trkpt lat="43.73962" lon="4.17906">
        <ele>50</ele>
        <time>2026-03-02T11:32:06Z</time>
      </trkpt>
      <trkpt lat="43.73971" lon="4.17926">
        <ele>50</ele>
        <time>2026-03-02T11:32:29Z</time>
      </trkpt>
      <trkpt lat="43.73969" lon="4.17999">
        <ele>52</ele>
        <time>2026-03-02T11:33:40Z</time>
      </trkpt>
      <trkpt lat="43.73966" lon="4.18029">
        <ele>53</ele>
        <time>2026-03-02T11:34:09Z</time>
      </trkpt>
      <trkpt lat="43.73974" lon="4.1803">
        <ele>52</ele>
        <time>2026-03-02T11:34:20Z</time>
      </trkpt>
      <trkpt lat="43.73986" lon="4.18025">
        <ele>52</ele>
        <time>2026-03-02T11:34:36Z</time>
      </trkpt>
      <trkpt lat="43.73998" lon="4.18027">
        <ele>51</ele>
        <time>2026-03-02T11:34:52Z</time>
      </trkpt>
      <trkpt lat="43.74014" lon="4.18038">
        <ele>50</ele>
        <time>2026-03-02T11:35:16Z</time>
      </trkpt>
      <trkpt lat="43.74012" lon="4.18066">
        <ele>51</ele>
        <time>2026-03-02T11:35:43Z</time>
      </trkpt>
      <trkpt lat="43.73999" lon="4.18132">
        <ele>50</ele>
        <time>2026-03-02T11:36:49Z</time>
      </trkpt>
      <trkpt lat="43.73999" lon="4.1815">
        <ele>50</ele>
        <time>2026-03-02T11:37:07Z</time>
      </trkpt>
      <trkpt lat="43.74055" lon="4.18184">
        <ele>43</ele>
        <time>2026-03-02T11:38:28Z</time>
      </trkpt>
      <trkpt lat="43.74063" lon="4.18191">
        <ele>42</ele>
        <time>2026-03-02T11:38:41Z</time>
      </trkpt>
      <trkpt lat="43.74072" lon="4.1821">
        <ele>41</ele>
        <time>2026-03-02T11:39:03Z</time>
      </trkpt>
      <trkpt lat="43.74092" lon="4.18269">
        <ele>37</ele>
        <time>2026-03-02T11:40:06Z</time>
      </trkpt>
      <trkpt lat="43.74156" lon="4.1837">
        <ele>34</ele>
        <time>2026-03-02T11:42:15Z</time>
      </trkpt>
      <trkpt lat="43.74176" lon="4.18389">
        <ele>34</ele>
        <time>2026-03-02T11:42:48Z</time>
      </trkpt>
      <trkpt lat="43.742" lon="4.18406">
        <ele>34</ele>
        <time>2026-03-02T11:43:24Z</time>
      </trkpt>
      <trkpt lat="43.74258" lon="4.18429">
        <ele>35</ele>
        <time>2026-03-02T11:44:44Z</time>
      </trkpt>
      <trkpt lat="43.74277" lon="4.18455">
        <ele>34</ele>
        <time>2026-03-02T11:45:20Z</time>
      </trkpt>
      <trkpt lat="43.74311" lon="4.1851">
        <ele>34</ele>
        <time>2026-03-02T11:46:29Z</time>
      </trkpt>
      <trkpt lat="43.74324" lon="4.18517">
        <ele>34</ele>
        <time>2026-03-02T11:46:48Z</time>
      </trkpt>
      <trkpt lat="43.74368" lon="4.18551">
        <ele>34</ele>
        <time>2026-03-02T11:47:55Z</time>
      </trkpt>
      <trkpt lat="43.74394" lon="4.18567">
        <ele>34</ele>
        <time>2026-03-02T11:48:33Z</time>
      </trkpt>
      <trkpt lat="43.7439" lon="4.18581">
        <ele>34</ele>
        <time>2026-03-02T11:48:48Z</time>
      </trkpt>
      <trkpt lat="43.74359" lon="4.18653">
        <ele>36</ele>
        <time>2026-03-02T11:50:09Z</time>
      </trkpt>
      <trkpt lat="43.74343" lon="4.18702">
        <ele>38</ele>
        <time>2026-03-02T11:51:00Z</time>
      </trkpt>
      <trkpt lat="43.74292" lon="4.1883">
        <ele>41</ele>
        <time>2026-03-02T11:53:21Z</time>
      </trkpt>
      <trkpt lat="43.74198" lon="4.19018">
        <ele>44</ele>
        <time>2026-03-02T11:57:02Z</time>
      </trkpt>
      <trkpt lat="43.74198" lon="4.19027">
        <ele>44</ele>
        <time>2026-03-02T11:57:11Z</time>
      </trkpt>
      <trkpt lat="43.74216" lon="4.19055">
        <ele>45</ele>
        <time>2026-03-02T11:57:47Z</time>
      </trkpt>
      <trkpt lat="43.74252" lon="4.19129">
        <ele>47</ele>
        <time>2026-03-02T11:59:13Z</time>
      </trkpt>
      <trkpt lat="43.7428" lon="4.19208">
        <ele>49</ele>
        <time>2026-03-02T12:00:37Z</time>
      </trkpt>
      <trkpt lat="43.74297" lon="4.19269">
        <ele>50</ele>
        <time>2026-03-02T12:01:41Z</time>
      </trkpt>
      <trkpt lat="43.74301" lon="4.19341">
        <ele>51</ele>
        <time>2026-03-02T12:02:50Z</time>
      </trkpt>
      <trkpt lat="43.74298" lon="4.19398">
        <ele>51</ele>
        <time>2026-03-02T12:03:45Z</time>
      </trkpt>
      <trkpt lat="43.74294" lon="4.19421">
        <ele>51</ele>
        <time>2026-03-02T12:04:08Z</time>
      </trkpt>
      <trkpt lat="43.74289" lon="4.19484">
        <ele>52</ele>
        <time>2026-03-02T12:05:09Z</time>
      </trkpt>
      <trkpt lat="43.74291" lon="4.19497">
        <ele>52</ele>
        <time>2026-03-02T12:05:22Z</time>
      </trkpt>
      <trkpt lat="43.74309" lon="4.19526">
        <ele>52</ele>
        <time>2026-03-02T12:05:59Z</time>
      </trkpt>
      <trkpt lat="43.74326" lon="4.19563">
        <ele>52</ele>
        <time>2026-03-02T12:06:41Z</time>
      </trkpt>
      <trkpt lat="43.74337" lon="4.1961">
        <ele>54</ele>
        <time>2026-03-02T12:07:29Z</time>
      </trkpt>
      <trkpt lat="43.74349" lon="4.19702">
        <ele>57</ele>
        <time>2026-03-02T12:08:59Z</time>
      </trkpt>
      <trkpt lat="43.7435" lon="4.19765">
        <ele>58</ele>
        <time>2026-03-02T12:10:00Z</time>
      </trkpt>
      <trkpt lat="43.74346" lon="4.19797">
        <ele>57</ele>
        <time>2026-03-02T12:10:31Z</time>
      </trkpt>
      <trkpt lat="43.74346" lon="4.19818">
        <ele>57</ele>
        <time>2026-03-02T12:10:51Z</time>
      </trkpt>
      <trkpt lat="43.74354" lon="4.19837">
        <ele>56</ele>
        <time>2026-03-02T12:11:12Z</time>
      </trkpt>
      <trkpt lat="43.74318" lon="4.19907">
        <ele>55</ele>
        <time>2026-03-02T12:12:35Z</time>
      </trkpt>
      <trkpt lat="43.74319" lon="4.19917">
        <ele>55</ele>
        <time>2026-03-02T12:12:45Z</time>
      </trkpt>
      <trkpt lat="43.74336" lon="4.19939">
        <ele>56</ele>
        <time>2026-03-02T12:13:16Z</time>
      </trkpt>
      <trkpt lat="43.74345" lon="4.19962">
        <ele>57</ele>
        <time>2026-03-02T12:13:41Z</time>
      </trkpt>
      <trkpt lat="43.74329" lon="4.20074">
        <ele>60</ele>
        <time>2026-03-02T12:15:31Z</time>
      </trkpt>
      <trkpt lat="43.74295" lon="4.20277">
        <ele>58</ele>
        <time>2026-03-02T12:18:52Z</time>
      </trkpt>
      <trkpt lat="43.7429" lon="4.20327">
        <ele>57</ele>
        <time>2026-03-02T12:19:41Z</time>
      </trkpt>
      <trkpt lat="43.74292" lon="4.2035">
        <ele>56</ele>
        <time>2026-03-02T12:20:03Z</time>
      </trkpt>
      <trkpt lat="43.74306" lon="4.2043">
        <ele>50</ele>
        <time>2026-03-02T12:21:23Z</time>
      </trkpt>
      <trkpt lat="43.7431" lon="4.20525">
        <ele>43</ele>
        <time>2026-03-02T12:22:54Z</time>
      </trkpt>
      <trkpt lat="43.74326" lon="4.20719">
        <ele>34</ele>
        <time>2026-03-02T12:26:03Z</time>
      </trkpt>
      <trkpt lat="43.74364" lon="4.20866">
        <ele>26</ele>
        <time>2026-03-02T12:28:33Z</time>
      </trkpt>
      <trkpt lat="43.74378" lon="4.20953">
        <ele>22</ele>
        <time>2026-03-02T12:29:59Z</time>
      </trkpt>
      <trkpt lat="43.74385" lon="4.20964">
        <ele>22</ele>
        <time>2026-03-02T12:30:13Z</time>
      </trkpt>
      <trkpt lat="43.74394" lon="4.2097">
        <ele>21</ele>
        <time>2026-03-02T12:30:26Z</time>
      </trkpt>
      <trkpt lat="43.74399" lon="4.20982">
        <ele>21</ele>
        <time>2026-03-02T12:30:40Z</time>
      </trkpt>
      <trkpt lat="43.74381" lon="4.2102">
        <ele>21</ele>
        <time>2026-03-02T12:31:24Z</time>
      </trkpt>
      <trkpt lat="43.74375" lon="4.21051">
        <ele>21</ele>
        <time>2026-03-02T12:31:55Z</time>
      </trkpt>
      <trkpt lat="43.74382" lon="4.21154">
        <ele>20</ele>
        <time>2026-03-02T12:33:34Z</time>
      </trkpt>
      <trkpt lat="43.74326" lon="4.21214">
        <ele>20</ele>
        <time>2026-03-02T12:35:09Z</time>
      </trkpt>
      <trkpt lat="43.74306" lon="4.21239">
        <ele>20</ele>
        <time>2026-03-02T12:35:45Z</time>
      </trkpt>
      <trkpt lat="43.74279" lon="4.2126">
        <ele>20</ele>
        <time>2026-03-02T12:36:26Z</time>
      </trkpt>
      <trkpt lat="43.74267" lon="4.21262">
        <ele>20</ele>
        <time>2026-03-02T12:36:42Z</time>
      </trkpt>
      <trkpt lat="43.74253" lon="4.21261">
        <ele>19</ele>
        <time>2026-03-02T12:37:01Z</time>
      </trkpt>
      <trkpt lat="43.74234" lon="4.21267">
        <ele>19</ele>
        <time>2026-03-02T12:37:27Z</time>
      </trkpt>
      <trkpt lat="43.74216" lon="4.21277">
        <ele>19</ele>
        <time>2026-03-02T12:37:53Z</time>
      </trkpt>
      <trkpt lat="43.74201" lon="4.21289">
        <ele>19</ele>
        <time>2026-03-02T12:38:16Z</time>
      </trkpt>
      <trkpt lat="43.74181" lon="4.21298">
        <ele>18</ele>
        <time>2026-03-02T12:38:44Z</time>
      </trkpt>
      <trkpt lat="43.74171" lon="4.21298">
        <ele>18</ele>
        <time>2026-03-02T12:38:57Z</time>
      </trkpt>
      <trkpt lat="43.74164" lon="4.21291">
        <ele>18</ele>
        <time>2026-03-02T12:39:09Z</time>
      </trkpt>
      <trkpt lat="43.74123" lon="4.21287">
        <ele>18</ele>
        <time>2026-03-02T12:40:04Z</time>
      </trkpt>
      <trkpt lat="43.74057" lon="4.21329">
        <ele>19</ele>
        <time>2026-03-02T12:41:41Z</time>
      </trkpt>
      <trkpt lat="43.73978" lon="4.21388">
        <ele>19</ele>
        <time>2026-03-02T12:43:40Z</time>
      </trkpt>
      <trkpt lat="43.73965" lon="4.21386">
        <ele>19</ele>
        <time>2026-03-02T12:43:58Z</time>
      </trkpt>
      <trkpt lat="43.73956" lon="4.21379">
        <ele>19</ele>
        <time>2026-03-02T12:44:12Z</time>
      </trkpt>
      <trkpt lat="43.73942" lon="4.21378">
        <ele>19</ele>
        <time>2026-03-02T12:44:30Z</time>
      </trkpt>
      <trkpt lat="43.73919" lon="4.21389">
        <ele>19</ele>
        <time>2026-03-02T12:45:03Z</time>
      </trkpt>
      <trkpt lat="43.73895" lon="4.21394">
        <ele>19</ele>
        <time>2026-03-02T12:45:35Z</time>
      </trkpt>
      <trkpt lat="43.73857" lon="4.21409">
        <ele>18</ele>
        <time>2026-03-02T12:46:28Z</time>
      </trkpt>
      <trkpt lat="43.73829" lon="4.21411">
        <ele>18</ele>
        <time>2026-03-02T12:47:05Z</time>
      </trkpt>
      <trkpt lat="43.73794" lon="4.21407">
        <ele>19</ele>
        <time>2026-03-02T12:47:52Z</time>
      </trkpt>
      <trkpt lat="43.73779" lon="4.21413">
        <ele>19</ele>
        <time>2026-03-02T12:48:13Z</time>
      </trkpt>
      <trkpt lat="43.73774" lon="4.21422">
        <ele>19</ele>
        <time>2026-03-02T12:48:24Z</time>
      </trkpt>
      <trkpt lat="43.73773" lon="4.21435">
        <ele>19</ele>
        <time>2026-03-02T12:48:37Z</time>
      </trkpt>
      <trkpt lat="43.73775" lon="4.2144">
        <ele>19</ele>
        <time>2026-03-02T12:48:42Z</time>
      </trkpt>
      <trkpt lat="43.7377" lon="4.21446">
        <ele>19</ele>
        <time>2026-03-02T12:48:51Z</time>
      </trkpt>
      <trkpt lat="43.73763" lon="4.21449">
        <ele>19</ele>
        <time>2026-03-02T12:49:01Z</time>
      </trkpt>
      <trkpt lat="43.73792" lon="4.21546">
        <ele>21</ele>
        <time>2026-03-02T12:50:42Z</time>
      </trkpt>
      <trkpt lat="43.738" lon="4.21607">
        <ele>22</ele>
        <time>2026-03-02T12:51:42Z</time>
      </trkpt>
      <trkpt lat="43.73841" lon="4.21761">
        <ele>23</ele>
        <time>2026-03-02T12:54:20Z</time>
      </trkpt>
      <trkpt lat="43.73801" lon="4.21773">
        <ele>22</ele>
        <time>2026-03-02T12:55:15Z</time>
      </trkpt>
      <trkpt lat="43.73766" lon="4.21791">
        <ele>20</ele>
        <time>2026-03-02T12:56:04Z</time>
      </trkpt>
      <trkpt lat="43.73753" lon="4.21802">
        <ele>20</ele>
        <time>2026-03-02T12:56:25Z</time>
      </trkpt>
      <trkpt lat="43.73748" lon="4.21798">
        <ele>20</ele>
        <time>2026-03-02T12:56:32Z</time>
      </trkpt>
      <trkpt lat="43.73731" lon="4.21771">
        <ele>20</ele>
        <time>2026-03-02T12:57:07Z</time>
      </trkpt>
      <trkpt lat="43.73722" lon="4.2173">
        <ele>20</ele>
        <time>2026-03-02T12:57:48Z</time>
      </trkpt>
    </trkseg>
  </trk>
</gpx>